METAR Data
IDs: Format: Raw Decoded Include TAF

Data at: 1313 UTC 23 Mar 2019

METAR for:PAVC (King Cove Arpt, AK, US)
Text:PAVC 231256Z AUTO 27016G19KT 10SM BKN014 BKN022 OVC060 03/02 A2939 RMK AO2 UPB35E48 SLP959 P0000 T00280017
Temperature: 2.8°C ( 37°F)
Dewpoint: 1.7°C ( 35°F) [RH = 92%]
Pressure (altimeter):29.39 inches Hg ( 995.3 mb) [Sea level pressure: 995.9 mb]
Winds:from the W (270 degrees) at 18 MPH (16 knots; 8.2 m/s) gusting to 22 MPH (19 knots; 9.8 m/s)
Visibility:10 or more sm (16+ km)
Ceiling:1400 feet AGL
Clouds: broken clouds at 1400 feet AGL, broken clouds at 2200 feet AGL, overcast cloud deck at 6000 feet AGL
QC Flag:automated observation with no human augmentation
Text:PAVC 231156Z AUTO 25013G25KT 10SM SCT017 BKN025 04/01 A2936 RMK AO2 SLP949 60002 70006 T00390006 10039 20022 53035
Temperature: 3.9°C ( 39°F)
Dewpoint: 0.6°C ( 33°F) [RH = 79%]
Pressure (altimeter):29.36 inches Hg ( 994.3 mb) [Sea level pressure: 994.9 mb]
Winds:from the WSW (250 degrees) at 15 MPH (13 knots; 6.7 m/s) gusting to 29 MPH (25 knots; 12.9 m/s)
Visibility:10 or more sm (16+ km)
Ceiling:2500 feet AGL
Clouds: scattered clouds at 1700 feet AGL, broken clouds at 2500 feet AGL
QC Flag:automated observation with no human augmentation
Text:PAVC 231142Z AUTO 25015G23KT 10SM FEW012 BKN025 03/01 A2936 RMK AO2
Temperature: 3.0°C ( 37°F)
Dewpoint: 1.0°C ( 34°F) [RH = 87%]
Pressure (altimeter):29.36 inches Hg ( 994.3 mb)
Winds:from the WSW (250 degrees) at 17 MPH (15 knots; 7.7 m/s) gusting to 26 MPH (23 knots; 11.8 m/s)
Visibility:10 or more sm (16+ km)
Ceiling:2500 feet AGL
Clouds: few clouds at 1200 feet AGL, broken clouds at 2500 feet AGL
QC Flag:automated observation with no human augmentation
Text:PAVC 231056Z AUTO 25019KT 10SM FEW033 SCT070 03/01 A2933 RMK AO2 SLP936 T00280011
Temperature: 2.8°C ( 37°F)
Dewpoint: 1.1°C ( 34°F) [RH = 89%]
Pressure (altimeter):29.33 inches Hg ( 993.3 mb) [Sea level pressure: 993.6 mb]
Winds:from the WSW (250 degrees) at 22 MPH (19 knots; 9.8 m/s)
Visibility:10 or more sm (16+ km)
Ceiling:at least 12,000 feet AGL
Clouds: few clouds at 3300 feet AGL, scattered clouds at 7000 feet AGL
QC Flag:automated observation with no human augmentation
Text:PAVC 231018Z AUTO 25018KT 10SM FEW008 SCT075 03/01 A2930 RMK AO2
Temperature: 3.0°C ( 37°F)
Dewpoint: 1.0°C ( 34°F) [RH = 87%]
Pressure (altimeter):29.30 inches Hg ( 992.3 mb)
Winds:from the WSW (250 degrees) at 21 MPH (18 knots; 9.3 m/s)
Visibility:10 or more sm (16+ km)
Ceiling:at least 12,000 feet AGL
Clouds: few clouds at 800 feet AGL, scattered clouds at 7500 feet AGL
QC Flag:automated observation with no human augmentation
Text:PAVC 230956Z AUTO 25017G24KT 10SM FEW008 BKN021 BKN025 03/01 A2929 RMK AO2 RAE52UPB29E41 SLP924 P0001 T00280011
Temperature: 2.8°C ( 37°F)
Dewpoint: 1.1°C ( 34°F) [RH = 89%]
Pressure (altimeter):29.29 inches Hg ( 992.0 mb) [Sea level pressure: 992.4 mb]
Winds:from the WSW (250 degrees) at 20 MPH (17 knots; 8.7 m/s) gusting to 28 MPH (24 knots; 12.3 m/s)
Visibility:10 or more sm (16+ km)
Ceiling:2100 feet AGL
Clouds: few clouds at 800 feet AGL, broken clouds at 2100 feet AGL, broken clouds at 2500 feet AGL
QC Flag:automated observation with no human augmentation
Text:PAVC 230856Z AUTO 25021G24KT 8SM -RA BKN016 OVC021 03/02 A2926 RMK AO2 SLP914 P0000 60001 T00280017 400560017 51038
Temperature: 2.8°C ( 37°F)
Dewpoint: 1.7°C ( 35°F) [RH = 92%]
Pressure (altimeter):29.26 inches Hg ( 990.9 mb) [Sea level pressure: 991.4 mb]
Winds:from the WSW (250 degrees) at 24 MPH (21 knots; 10.8 m/s) gusting to 28 MPH (24 knots; 12.3 m/s)
Visibility: 8 sm ( 13 km)
Ceiling:1600 feet AGL
Clouds: broken clouds at 1600 feet AGL, overcast cloud deck at 2100 feet AGL
Weather:-RA (light rain)
QC Flag:automated observation with no human augmentation
Text:PAVC 230756Z AUTO 25018G25KT 6SM -RA BR OVC016 03/02 A2923 RMK AO2 PK WND 26026/0704 SLP902 P0001 T00280017
Temperature: 2.8°C ( 37°F)
Dewpoint: 1.7°C ( 35°F) [RH = 92%]
Pressure (altimeter):29.23 inches Hg ( 989.9 mb) [Sea level pressure: 990.2 mb]
Winds:from the WSW (250 degrees) at 21 MPH (18 knots; 9.3 m/s) gusting to 29 MPH (25 knots; 12.9 m/s)
Visibility: 6 sm ( 10 km)
Ceiling:1600 feet AGL
Clouds: overcast cloud deck at 1600 feet AGL
Weather:-RA BR (light rain, mist)
QC Flag:automated observation with no human augmentation

TAF for:PAVC (King Cove Arpt, AK, US)
Text:No data found